createdAt,value
2019-05-09T00:01:47.722Z,8.90
2019-05-09T00:04:18.026Z,8.90
2019-05-09T00:06:49.854Z,8.80
2019-05-09T00:09:20.262Z,8.70
2019-05-09T00:11:50.515Z,8.70
2019-05-09T00:14:20.874Z,8.70
2019-05-09T00:16:53.055Z,8.70
2019-05-09T00:19:25.138Z,8.60
2019-05-09T00:21:55.486Z,8.60
2019-05-09T00:24:26.034Z,8.60
2019-05-09T00:26:56.506Z,8.60
2019-05-09T00:29:33.572Z,8.60
2019-05-09T00:32:25.822Z,8.50
2019-05-09T00:35:14.237Z,8.50
2019-05-09T00:37:55.698Z,8.40
2019-05-09T00:40:27.917Z,8.30
2019-05-09T00:42:58.347Z,8.20
2019-05-09T00:45:54.314Z,8.20
2019-05-09T00:48:30.847Z,8.10
2019-05-09T00:51:03.284Z,8.00
2019-05-09T00:53:33.880Z,8.00
2019-05-09T00:56:04.546Z,8.00
2019-05-09T00:58:36.008Z,8.00
2019-05-09T01:01:06.553Z,7.90
2019-05-09T01:03:36.838Z,7.80
2019-05-09T01:06:07.100Z,7.80
2019-05-09T01:08:37.390Z,7.80
2019-05-09T01:11:12.169Z,7.80
2019-05-09T01:13:39.802Z,7.90
2019-05-09T01:16:10.171Z,7.90
2019-05-09T01:18:40.426Z,7.90
2019-05-09T01:21:13.210Z,7.90
2019-05-09T01:23:43.622Z,7.90
2019-05-09T01:26:16.217Z,7.90
2019-05-09T01:28:46.754Z,7.90
2019-05-09T01:31:18.291Z,7.90
2019-05-09T01:33:53.587Z,7.90
2019-05-09T01:36:23.778Z,7.90
2019-05-09T01:38:54.145Z,7.80
2019-05-09T01:41:30.497Z,7.80
2019-05-09T01:43:56.442Z,7.70
2019-05-09T01:46:26.690Z,7.70
2019-05-09T01:48:57.026Z,7.70
2019-05-09T01:51:27.439Z,7.70
2019-05-09T01:53:58.644Z,7.80
2019-05-09T01:56:28.895Z,7.80
2019-05-09T01:58:59.228Z,7.80
2019-05-09T02:01:29.622Z,7.80
2019-05-09T02:04:00.062Z,7.80
2019-05-09T02:06:30.352Z,7.80
2019-05-09T02:09:00.602Z,7.90
2019-05-09T02:11:42.154Z,7.90
2019-05-09T02:14:04.118Z,7.90
2019-05-09T02:16:45.511Z,7.90
2019-05-09T02:19:21.038Z,7.90
2019-05-09T02:21:53.135Z,7.90
2019-05-09T02:24:24.834Z,7.90
2019-05-09T02:26:55.045Z,7.90
2019-05-09T02:29:25.324Z,7.90
2019-05-09T02:31:55.674Z,7.90
2019-05-09T02:34:25.939Z,7.90
2019-05-09T02:36:58.679Z,7.90
2019-05-09T02:39:29.429Z,8.00
2019-05-09T02:42:08.806Z,8.00
2019-05-09T02:44:31.921Z,8.00
2019-05-09T02:47:22.685Z,8.10
2019-05-09T02:49:53.233Z,8.10
2019-05-09T02:52:23.647Z,8.20
2019-05-09T02:54:53.986Z,8.30
2019-05-09T02:57:29.077Z,8.40
2019-05-09T03:00:19.607Z,8.40
2019-05-09T03:03:11.689Z,8.50
2019-05-09T03:05:42.049Z,8.50
2019-05-09T03:08:12.283Z,8.60
2019-05-09T03:10:42.822Z,8.60
2019-05-09T03:13:13.220Z,8.60
2019-05-09T03:15:44.159Z,8.50
2019-05-09T03:18:14.479Z,8.50
2019-05-09T03:20:54.199Z,8.50
2019-05-09T03:23:28.227Z,8.50
2019-05-09T03:25:58.918Z,8.60
2019-05-09T03:28:54.186Z,8.50
2019-05-09T03:31:29.991Z,8.50
2019-05-09T03:34:00.573Z,8.50
2019-05-09T03:36:30.970Z,8.50
2019-05-09T03:39:01.260Z,8.50
2019-05-09T03:41:31.711Z,8.40
2019-05-09T03:44:01.946Z,8.40
2019-05-09T03:46:47.619Z,8.30
2019-05-09T03:49:18.161Z,8.20
2019-05-09T03:51:48.483Z,8.10
2019-05-09T03:54:20.354Z,8.00
2019-05-09T03:56:57.274Z,8.00
2019-05-09T03:59:27.918Z,7.90
2019-05-09T04:01:59.006Z,7.80
2019-05-09T04:04:29.534Z,7.80
2019-05-09T04:06:59.774Z,7.80
2019-05-09T04:09:30.022Z,7.80
2019-05-09T04:12:00.374Z,7.80
2019-05-09T04:14:32.237Z,7.80
2019-05-09T04:17:02.484Z,7.90
2019-05-09T04:19:32.921Z,7.90
2019-05-09T04:22:03.499Z,7.90
2019-05-09T04:24:34.158Z,7.90
2019-05-09T04:27:09.821Z,7.90
2019-05-09T04:29:40.138Z,7.90
2019-05-09T04:32:10.367Z,7.90
2019-05-09T04:34:40.746Z,7.90
2019-05-09T04:37:12.301Z,7.90
2019-05-09T04:39:42.739Z,8.00
2019-05-09T04:42:13.170Z,8.10
2019-05-09T04:45:10.063Z,8.10
2019-05-09T04:47:43.340Z,8.20
2019-05-09T04:50:15.289Z,8.20
2019-05-09T04:52:43.975Z,8.30
2019-05-09T04:55:18.233Z,8.40
2019-05-09T04:57:48.641Z,8.50
2019-05-09T05:00:24.381Z,8.60
2019-05-09T05:02:54.370Z,8.80
2019-05-09T05:05:24.787Z,8.80
2019-05-09T05:07:57.240Z,8.90
2019-05-09T05:10:27.390Z,8.90
2019-05-09T05:12:57.826Z,9.00
2019-05-09T05:15:29.250Z,9.00
2019-05-09T05:17:59.554Z,9.00
2019-05-09T05:20:32.927Z,9.10
2019-05-09T05:23:18.989Z,9.30
2019-05-09T05:25:49.363Z,9.60
2019-05-09T05:28:19.634Z,9.70
2019-05-09T05:30:50.282Z,9.80
2019-05-09T05:33:33.153Z,9.80
2019-05-09T05:36:07.866Z,9.70
2019-05-09T05:38:38.320Z,9.70
2019-05-09T05:41:08.655Z,9.60
2019-05-09T05:43:44.260Z,9.70
2019-05-09T05:46:24.286Z,9.80
2019-05-09T05:48:54.842Z,10.10
2019-05-09T05:51:28.183Z,10.40
2019-05-09T05:54:01.215Z,10.60
2019-05-09T05:56:30.570Z,10.80
2019-05-09T05:59:02.527Z,11.10
2019-05-09T06:01:32.846Z,11.20
2019-05-09T06:04:04.923Z,11.40
2019-05-09T06:06:37.465Z,11.60
2019-05-09T06:09:08.579Z,11.90
2019-05-09T06:11:38.882Z,12.00
2019-05-09T06:14:11.812Z,12.20
2019-05-09T06:16:41.249Z,12.30
2019-05-09T06:19:11.479Z,12.40
2019-05-09T06:21:42.840Z,12.40
2019-05-09T06:24:13.196Z,12.40
2019-05-09T06:26:43.571Z,12.40
2019-05-09T06:29:13.853Z,12.30
2019-05-09T06:31:44.136Z,12.40
2019-05-09T06:34:38.690Z,12.40
2019-05-09T06:37:08.614Z,12.40
2019-05-09T06:39:40.296Z,12.40
2019-05-09T06:42:12.247Z,12.30
2019-05-09T06:44:52.780Z,12.40
2019-05-09T06:47:30.251Z,12.50
2019-05-09T06:50:07.698Z,12.70
2019-05-09T06:52:44.620Z,12.80
2019-05-09T06:55:17.212Z,12.80
2019-05-09T06:57:48.901Z,13.00
2019-05-09T07:00:37.829Z,13.20
2019-05-09T07:03:11.478Z,13.30
2019-05-09T07:06:19.536Z,13.60
2019-05-09T07:08:58.502Z,13.90
2019-05-09T07:11:29.827Z,14.00
2019-05-09T07:14:00.079Z,13.70
2019-05-09T07:16:45.175Z,13.50
2019-05-09T07:19:17.482Z,13.40
2019-05-09T07:22:23.789Z,13.30
2019-05-09T07:25:11.468Z,13.20
2019-05-09T07:27:43.543Z,13.10
2019-05-09T07:30:42.070Z,13.00
2019-05-09T07:33:21.610Z,13.10
2019-05-09T07:35:51.934Z,13.30
2019-05-09T07:38:32.729Z,13.30
2019-05-09T07:41:03.224Z,13.20
2019-05-09T07:43:33.539Z,13.00
2019-05-09T07:46:09.939Z,13.00
2019-05-09T07:48:40.629Z,13.00
2019-05-09T07:51:10.914Z,13.00
2019-05-09T07:53:41.260Z,13.10
2019-05-09T07:56:11.653Z,13.20
2019-05-09T07:58:41.973Z,13.40
2019-05-09T08:01:12.295Z,13.60
2019-05-09T08:03:42.584Z,13.80
2019-05-09T08:06:12.905Z,14.00
2019-05-09T08:08:43.194Z,14.00
2019-05-09T08:11:14.448Z,14.20
2019-05-09T08:13:44.742Z,14.30
2019-05-09T08:16:18.631Z,14.10
2019-05-09T08:18:48.803Z,13.90
2019-05-09T08:21:19.153Z,13.90
2019-05-09T08:23:49.619Z,13.80
2019-05-09T08:26:19.918Z,13.60
2019-05-09T08:28:50.189Z,13.50
2019-05-09T08:31:20.472Z,13.60
2019-05-09T08:33:50.886Z,13.60
2019-05-09T08:36:21.264Z,13.70
2019-05-09T08:38:51.479Z,13.80
2019-05-09T08:41:21.881Z,13.80
2019-05-09T08:43:52.276Z,13.80
2019-05-09T08:46:22.586Z,13.70
2019-05-09T08:48:52.849Z,13.60
2019-05-09T08:51:37.689Z,13.60
2019-05-09T08:54:04.117Z,13.60
2019-05-09T08:56:34.422Z,13.60
2019-05-09T08:59:04.830Z,13.60
2019-05-09T09:02:04.190Z,13.60
2019-05-09T09:04:08.121Z,13.70
2019-05-09T09:06:38.594Z,13.90
2019-05-09T09:09:08.870Z,13.90
2019-05-09T09:11:40.861Z,13.70
2019-05-09T09:14:11.090Z,13.70
2019-05-09T09:16:41.900Z,13.60
2019-05-09T09:19:12.320Z,13.50
2019-05-09T09:21:42.567Z,13.50
2019-05-09T09:24:12.802Z,13.50
2019-05-09T09:26:44.219Z,13.60
2019-05-09T09:29:14.443Z,13.60
2019-05-09T09:31:44.807Z,13.70
2019-05-09T09:34:15.093Z,13.70
2019-05-09T09:36:47.912Z,13.70
2019-05-09T09:39:18.519Z,13.50
2019-05-09T09:41:48.996Z,13.40
2019-05-09T09:44:22.454Z,13.30
2019-05-09T09:46:52.383Z,13.30
2019-05-09T09:49:22.669Z,13.30
2019-05-09T09:51:53.253Z,13.50
2019-05-09T09:54:23.679Z,13.50
2019-05-09T09:56:54.119Z,13.70
2019-05-09T09:59:48.339Z,13.80
2019-05-09T10:02:20.631Z,14.00
2019-05-09T10:04:50.891Z,14.10
2019-05-09T10:07:21.178Z,14.20
2019-05-09T10:09:51.436Z,14.40
2019-05-09T10:12:21.683Z,14.40
2019-05-09T10:14:58.735Z,14.50
2019-05-09T10:17:50.690Z,14.60
2019-05-09T10:20:43.891Z,14.80
2019-05-09T10:23:33.158Z,15.00
2019-05-09T10:26:03.441Z,15.10
2019-05-09T10:28:33.743Z,15.10
2019-05-09T10:31:05.147Z,15.20
2019-05-09T10:33:37.510Z,15.30
2019-05-09T10:36:08.661Z,15.50
2019-05-09T10:38:39.363Z,15.40
2019-05-09T10:41:11.321Z,15.50
2019-05-09T10:43:51.611Z,15.60
2019-05-09T10:46:52.041Z,15.70
2019-05-09T10:49:09.014Z,15.80
2019-05-09T10:51:39.259Z,16.10
2019-05-09T10:54:09.500Z,16.40
2019-05-09T10:56:40.072Z,16.50
2019-05-09T10:59:10.442Z,16.70
2019-05-09T11:01:40.655Z,16.70
2019-05-09T11:04:10.948Z,16.50
2019-05-09T11:06:41.356Z,16.50
2019-05-09T11:09:11.902Z,16.70
2019-05-09T11:11:42.245Z,17.00
2019-05-09T11:14:27.859Z,17.20
2019-05-09T11:16:47.444Z,17.30
2019-05-09T11:19:18.390Z,17.20
2019-05-09T11:21:49.318Z,17.30
2019-05-09T11:24:19.548Z,17.40
2019-05-09T11:26:49.826Z,17.50
2019-05-09T11:29:20.175Z,17.40
2019-05-09T11:31:50.435Z,17.20
2019-05-09T11:34:20.751Z,17.00
2019-05-09T11:36:51.023Z,16.90
2019-05-09T11:39:35.742Z,16.60
2019-05-09T11:41:53.548Z,16.50
2019-05-09T11:44:23.793Z,16.50
2019-05-09T11:46:58.080Z,16.70
2019-05-09T11:49:29.499Z,16.90
2019-05-09T11:51:59.891Z,17.00
2019-05-09T11:54:30.127Z,17.20
2019-05-09T11:57:00.438Z,17.40
2019-05-09T11:59:30.779Z,17.50
2019-05-09T12:02:01.222Z,17.60
2019-05-09T12:04:31.459Z,17.70
2019-05-09T12:07:01.796Z,17.80
2019-05-09T12:09:32.078Z,18.00
2019-05-09T12:12:04.076Z,18.00
2019-05-09T12:14:38.029Z,17.90
2019-05-09T12:17:08.991Z,17.70
2019-05-09T12:19:39.249Z,17.50
2019-05-09T12:22:09.586Z,17.40
2019-05-09T12:24:39.913Z,17.40
2019-05-09T12:27:10.357Z,17.60
2019-05-09T12:29:40.608Z,17.70
2019-05-09T12:32:10.879Z,17.90
2019-05-09T12:34:41.186Z,17.90
2019-05-09T12:37:11.547Z,17.50
2019-05-09T12:39:41.798Z,17.10
2019-05-09T12:42:12.054Z,17.00
2019-05-09T12:44:43.014Z,17.00
2019-05-09T12:47:14.382Z,17.10
2019-05-09T12:49:44.664Z,17.00
2019-05-09T12:52:15.140Z,17.00
2019-05-09T12:54:48.158Z,16.80
2019-05-09T12:57:19.121Z,16.70
2019-05-09T12:59:52.896Z,16.50
2019-05-09T13:02:22.101Z,16.40
2019-05-09T13:04:52.516Z,16.40
2019-05-09T13:07:22.860Z,16.30
2019-05-09T13:09:53.207Z,16.30
2019-05-09T13:12:23.770Z,16.40
2019-05-09T13:14:57.884Z,16.50
2019-05-09T13:17:38.325Z,16.60
2019-05-09T13:20:09.037Z,16.70
2019-05-09T13:22:39.322Z,16.90
2019-05-09T13:25:09.855Z,16.90
2019-05-09T13:27:40.259Z,16.90
2019-05-09T13:30:10.921Z,16.90
2019-05-09T13:32:41.342Z,17.00
2019-05-09T13:35:11.602Z,17.00
2019-05-09T13:37:42.924Z,17.00
2019-05-09T13:40:13.343Z,17.00
2019-05-09T13:42:43.851Z,17.00
2019-05-09T13:45:14.307Z,16.90
2019-05-09T13:47:44.636Z,16.70
2019-05-09T13:50:14.924Z,16.60
2019-05-09T13:52:45.204Z,16.70
2019-05-09T13:55:17.691Z,16.70
2019-05-09T13:57:48.636Z,16.80
2019-05-09T14:00:19.534Z,16.90
2019-05-09T14:02:50.026Z,16.70
2019-05-09T14:05:20.539Z,16.70
2019-05-09T14:07:54.811Z,16.70
2019-05-09T14:10:22.801Z,16.60
2019-05-09T14:13:05.677Z,16.50
2019-05-09T14:15:27.382Z,16.30
2019-05-09T14:17:58.209Z,16.20
2019-05-09T14:20:29.928Z,16.10
2019-05-09T14:23:19.403Z,15.90
2019-05-09T14:26:00.386Z,15.70
2019-05-09T14:28:31.143Z,15.50
2019-05-09T14:31:22.187Z,15.40
2019-05-09T14:33:52.499Z,15.40
2019-05-09T14:36:22.861Z,15.40
2019-05-09T14:38:53.263Z,15.40
2019-05-09T14:41:23.495Z,15.40
2019-05-09T14:43:53.746Z,15.40
2019-05-09T14:46:24.199Z,15.50
2019-05-09T14:48:54.504Z,15.50
2019-05-09T14:51:24.890Z,15.50
2019-05-09T14:53:55.130Z,15.50
2019-05-09T14:56:27.828Z,15.30
2019-05-09T14:58:58.227Z,15.30
2019-05-09T15:01:29.051Z,15.20
2019-05-09T15:03:59.281Z,15.20
2019-05-09T15:06:29.650Z,15.20
2019-05-09T15:09:00.111Z,15.10
2019-05-09T15:11:30.810Z,15.20
2019-05-09T15:14:01.110Z,15.10
2019-05-09T15:16:31.477Z,15.20
2019-05-09T15:19:01.794Z,15.20
2019-05-09T15:21:32.155Z,15.10
2019-05-09T15:24:02.428Z,15.10
2019-05-09T15:26:33.186Z,15.20
2019-05-09T15:29:07.732Z,15.40
2019-05-09T15:31:39.174Z,15.60
2019-05-09T15:34:10.499Z,15.70
2019-05-09T15:36:42.634Z,15.90
2019-05-09T15:39:12.933Z,15.90
2019-05-09T15:41:43.304Z,16.00
2019-05-09T15:44:13.660Z,16.10
2019-05-09T15:46:50.954Z,16.20
2019-05-09T15:49:21.663Z,16.40
2019-05-09T15:51:52.077Z,16.40
2019-05-09T15:54:22.373Z,16.20
2019-05-09T15:56:52.612Z,16.10
2019-05-09T15:59:22.977Z,15.90
2019-05-09T16:01:53.273Z,15.70
2019-05-09T16:04:23.709Z,15.60
2019-05-09T16:06:54.054Z,15.40
2019-05-09T16:09:24.331Z,15.30
2019-05-09T16:11:55.585Z,15.40
2019-05-09T16:14:27.712Z,15.50
2019-05-09T16:16:57.806Z,15.70
2019-05-09T16:19:28.368Z,15.80
2019-05-09T16:21:58.726Z,15.70
2019-05-09T16:24:30.617Z,15.70
2019-05-09T16:27:00.955Z,15.60
2019-05-09T16:29:32.437Z,15.70
2019-05-09T16:32:02.959Z,15.70
2019-05-09T16:34:33.291Z,15.80
2019-05-09T16:37:03.836Z,15.80
2019-05-09T16:39:34.276Z,15.80
2019-05-09T16:42:04.892Z,15.70
2019-05-09T16:44:37.559Z,15.70
2019-05-09T16:47:08.336Z,15.80
2019-05-09T16:49:38.968Z,15.70
2019-05-09T16:52:09.241Z,15.70
2019-05-09T16:54:42.572Z,15.60
2019-05-09T16:57:12.946Z,15.60
2019-05-09T16:59:43.499Z,15.60
2019-05-09T17:02:21.418Z,15.50
2019-05-09T17:04:48.094Z,15.50
2019-05-09T17:07:18.376Z,15.50
2019-05-09T17:09:48.641Z,15.50
2019-05-09T17:12:18.954Z,15.60
2019-05-09T17:14:49.345Z,15.60
2019-05-09T17:17:19.684Z,15.70
2019-05-09T17:19:49.946Z,15.70
2019-05-09T17:22:39.206Z,15.70
2019-05-09T17:25:09.627Z,15.70
2019-05-09T17:27:39.931Z,15.60
2019-05-09T17:30:12.935Z,15.60
2019-05-09T17:32:47.478Z,15.50
2019-05-09T17:35:18.554Z,15.50
2019-05-09T17:37:49.012Z,15.50
2019-05-09T17:40:19.499Z,15.50
2019-05-09T17:42:50.031Z,15.50
2019-05-09T17:45:21.474Z,15.50
2019-05-09T17:47:51.783Z,15.40
2019-05-09T17:50:22.150Z,15.40
2019-05-09T17:52:52.543Z,15.30
2019-05-09T17:55:22.915Z,15.20
2019-05-09T17:57:53.281Z,15.20
2019-05-09T18:00:23.654Z,15.10
2019-05-09T18:02:53.950Z,15.10
2019-05-09T18:05:24.334Z,15.10
2019-05-09T18:07:54.735Z,15.00
2019-05-09T18:10:27.995Z,14.90
2019-05-09T18:12:58.877Z,14.90
2019-05-09T18:15:29.333Z,14.90
2019-05-09T18:18:01.216Z,14.80
2019-05-09T18:20:31.541Z,14.70
2019-05-09T18:23:03.377Z,14.70
2019-05-09T18:25:33.816Z,14.70
2019-05-09T18:28:04.107Z,14.60
2019-05-09T18:30:34.472Z,14.60
2019-05-09T18:33:28.719Z,14.50
2019-05-09T18:36:00.018Z,14.40
2019-05-09T18:38:34.120Z,14.30
2019-05-09T18:41:07.140Z,14.20
2019-05-09T18:43:36.507Z,14.20
2019-05-09T18:46:08.351Z,14.10
2019-05-09T18:48:38.751Z,14.20
2019-05-09T18:51:09.085Z,14.10
2019-05-09T18:53:40.459Z,13.90
2019-05-09T18:56:10.872Z,13.70
2019-05-09T18:58:41.271Z,13.60
2019-05-09T19:01:11.531Z,13.30
2019-05-09T19:03:41.846Z,13.00
2019-05-09T19:06:12.201Z,12.70
2019-05-09T19:08:43.486Z,12.50
2019-05-09T19:11:13.847Z,12.30
2019-05-09T19:13:44.202Z,12.30
2019-05-09T19:16:36.345Z,12.20
2019-05-09T19:19:31.753Z,12.10
2019-05-09T19:22:04.898Z,12.10
2019-05-09T19:24:35.335Z,12.00
2019-05-09T19:27:05.662Z,12.00
2019-05-09T19:29:36.150Z,12.00
2019-05-09T19:32:06.403Z,11.90
2019-05-09T19:34:36.834Z,11.90
2019-05-09T19:37:07.163Z,11.90
2019-05-09T19:39:37.465Z,12.00
2019-05-09T19:42:09.137Z,12.00
2019-05-09T19:44:39.483Z,12.00
2019-05-09T19:47:09.845Z,12.00
2019-05-09T19:49:41.754Z,12.00
2019-05-09T19:52:12.568Z,11.90
2019-05-09T19:54:42.859Z,11.90
2019-05-09T19:57:13.402Z,11.90
2019-05-09T19:59:43.698Z,11.90
2019-05-09T20:02:13.987Z,11.90
2019-05-09T20:04:44.416Z,11.90
2019-05-09T20:07:14.767Z,11.90
2019-05-09T20:09:51.432Z,11.80
2019-05-09T20:12:37.956Z,11.80
2019-05-09T20:15:13.247Z,11.80
2019-05-09T20:17:45.138Z,11.80
2019-05-09T20:20:15.719Z,11.90
2019-05-09T20:22:53.020Z,11.80
2019-05-09T20:25:18.416Z,11.80
2019-05-09T20:27:50.400Z,11.80
2019-05-09T20:30:20.652Z,11.80
2019-05-09T20:32:50.991Z,11.80
2019-05-09T20:35:21.414Z,11.70
2019-05-09T20:37:52.000Z,11.80
2019-05-09T20:40:22.672Z,11.70
2019-05-09T20:42:53.276Z,11.70
2019-05-09T20:45:23.896Z,11.70
2019-05-09T20:47:54.439Z,11.70
2019-05-09T20:50:25.113Z,11.70
2019-05-09T20:53:08.437Z,11.70
2019-05-09T20:55:27.895Z,11.70
2019-05-09T20:57:58.619Z,11.70
2019-05-09T21:00:29.111Z,11.80
2019-05-09T21:03:00.031Z,11.80
2019-05-09T21:05:30.574Z,11.80
2019-05-09T21:08:01.649Z,11.70
2019-05-09T21:10:32.187Z,11.70
2019-05-09T21:13:02.870Z,11.70
2019-05-09T21:15:33.375Z,11.70
2019-05-09T21:18:03.893Z,11.70
2019-05-09T21:20:34.376Z,11.80
2019-05-09T21:23:05.007Z,11.70
2019-05-09T21:25:35.555Z,11.70
2019-05-09T21:28:06.151Z,11.60
2019-05-09T21:30:36.613Z,11.60
2019-05-09T21:33:07.060Z,11.60
2019-05-09T21:35:37.361Z,11.60
2019-05-09T21:38:07.850Z,11.60
2019-05-09T21:40:38.211Z,11.60
2019-05-09T21:43:08.649Z,11.60
2019-05-09T21:45:38.950Z,11.60
2019-05-09T21:48:09.227Z,11.60
2019-05-09T21:50:39.616Z,11.60
2019-05-09T21:53:10.038Z,11.60
2019-05-09T21:55:40.511Z,11.60
2019-05-09T21:58:11.012Z,11.60
2019-05-09T22:00:42.665Z,11.60
2019-05-09T22:03:14.518Z,11.60
2019-05-09T22:05:45.151Z,11.60
2019-05-09T22:08:15.652Z,11.60
2019-05-09T22:10:47.616Z,11.50
2019-05-09T22:13:18.172Z,11.50
2019-05-09T22:15:48.457Z,11.50
2019-05-09T22:18:20.302Z,11.50
2019-05-09T22:20:50.583Z,11.50
2019-05-09T22:23:20.796Z,11.50
2019-05-09T22:25:51.224Z,11.50
2019-05-09T22:28:21.726Z,11.40
2019-05-09T22:30:52.020Z,11.40
2019-05-09T22:33:22.434Z,11.40
2019-05-09T22:35:52.791Z,11.40
2019-05-09T22:38:23.147Z,11.30
2019-05-09T22:40:53.560Z,11.30
2019-05-09T22:43:23.863Z,11.30
2019-05-09T22:45:54.105Z,11.30
2019-05-09T22:48:24.505Z,11.30
2019-05-09T22:50:54.872Z,11.30
2019-05-09T22:53:25.105Z,11.20
2019-05-09T22:55:55.358Z,11.30
2019-05-09T22:58:25.686Z,11.20
2019-05-09T23:00:55.932Z,11.20
2019-05-09T23:03:26.180Z,11.20
2019-05-09T23:05:56.465Z,11.10
2019-05-09T23:08:26.914Z,11.00
2019-05-09T23:10:57.214Z,11.00
2019-05-09T23:13:27.514Z,10.90
2019-05-09T23:15:57.819Z,10.90
2019-05-09T23:18:29.143Z,10.80
2019-05-09T23:21:00.763Z,10.70
2019-05-09T23:23:42.818Z,10.60
2019-05-09T23:26:16.539Z,10.50
2019-05-09T23:28:46.987Z,10.50
2019-05-09T23:31:21.466Z,10.40
2019-05-09T23:33:52.011Z,10.50
2019-05-09T23:36:22.284Z,10.40
2019-05-09T23:39:12.077Z,10.50
2019-05-09T23:41:42.418Z,10.50
2019-05-09T23:44:12.866Z,10.60
2019-05-09T23:46:43.193Z,10.50
2019-05-09T23:49:13.942Z,10.50
2019-05-09T23:51:47.538Z,10.50
2019-05-09T23:54:45.814Z,10.40
2019-05-09T23:57:27.793Z,10.50
